createdAt,value
2023-05-02T00:02:05.274Z,8.21
2023-05-02T00:04:35.005Z,8.08
2023-05-02T00:07:03.515Z,8.03
2023-05-02T00:09:31.669Z,7.97
2023-05-02T00:11:59.989Z,7.91
2023-05-02T00:14:28.130Z,7.78
2023-05-02T00:16:56.461Z,7.76
2023-05-02T00:19:24.629Z,7.74
2023-05-02T00:21:54.227Z,7.73
2023-05-02T00:24:22.498Z,7.72
2023-05-02T00:26:50.590Z,7.72
2023-05-02T00:29:19.012Z,7.75
2023-05-02T00:31:47.183Z,7.74
2023-05-02T00:34:15.681Z,7.74
2023-05-02T00:36:43.735Z,7.76
2023-05-02T00:39:13.597Z,7.79
2023-05-02T00:41:41.872Z,7.79
2023-05-02T00:44:10.081Z,7.81
2023-05-02T00:46:38.783Z,7.86
2023-05-02T00:49:07.335Z,7.87
2023-05-02T00:51:35.905Z,7.88
2023-05-02T00:54:04.538Z,7.89
2023-05-02T00:56:34.201Z,7.91
2023-05-02T00:59:02.710Z,7.93
2023-05-02T01:01:35.438Z,7.97
2023-05-02T01:04:11.458Z,7.95
2023-05-02T01:06:44.937Z,7.95
2023-05-02T01:09:22.399Z,7.97
2023-05-02T01:11:54.836Z,7.97
2023-05-02T01:14:23.966Z,7.93
2023-05-02T01:16:54.100Z,7.89
2023-05-02T01:19:26.867Z,7.86
2023-05-02T01:21:56.142Z,7.77
2023-05-02T01:24:26.782Z,7.76
2023-05-02T01:27:03.139Z,7.76
2023-05-02T01:29:33.668Z,7.77
2023-05-02T01:32:03.281Z,7.73
2023-05-02T01:34:33.340Z,7.65
2023-05-02T01:37:04.694Z,7.65
2023-05-02T01:39:33.594Z,7.67
2023-05-02T01:42:03.829Z,7.69
2023-05-02T01:44:36.056Z,7.68
2023-05-02T01:47:07.358Z,7.66
2023-05-02T01:49:36.420Z,7.65
2023-05-02T01:52:06.569Z,7.65
2023-05-02T01:54:36.973Z,7.63
2023-05-02T01:57:07.383Z,7.62
2023-05-02T01:59:38.159Z,7.63
2023-05-02T02:02:07.564Z,7.58
2023-05-02T02:04:37.043Z,7.52
2023-05-02T02:07:08.286Z,7.48
2023-05-02T02:09:36.529Z,7.45
2023-05-02T02:12:08.647Z,7.41
2023-05-02T02:14:40.507Z,7.39
2023-05-02T02:17:13.912Z,7.35
2023-05-02T02:19:43.542Z,7.33
2023-05-02T02:22:15.041Z,7.32
2023-05-02T02:24:45.023Z,7.28
2023-05-02T02:27:13.246Z,7.20
2023-05-02T02:29:42.832Z,7.12
2023-05-02T02:32:11.059Z,7.07
2023-05-02T02:34:39.468Z,7.02
2023-05-02T02:37:10.170Z,6.87
2023-05-02T02:39:46.005Z,6.88
2023-05-02T02:42:17.358Z,6.87
2023-05-02T02:45:07.121Z,6.88
2023-05-02T02:47:38.659Z,6.86
2023-05-02T02:50:12.801Z,6.84
2023-05-02T02:52:46.952Z,6.84
2023-05-02T02:55:20.551Z,6.84
2023-05-02T02:57:52.877Z,6.81
2023-05-02T03:00:23.643Z,6.79
2023-05-02T03:02:53.815Z,6.80
2023-05-02T03:05:22.840Z,6.82
2023-05-02T03:07:51.742Z,6.81
2023-05-02T03:10:23.591Z,6.75
2023-05-02T03:12:55.743Z,6.71
2023-05-02T03:15:35.588Z,6.71
2023-05-02T03:18:04.125Z,6.71
2023-05-02T03:20:32.115Z,6.72
2023-05-02T03:23:01.809Z,6.75
2023-05-02T03:25:30.270Z,6.77
2023-05-02T03:27:58.597Z,6.78
2023-05-02T03:30:28.544Z,6.81
2023-05-02T03:32:57.448Z,6.81
2023-05-02T03:35:25.779Z,6.79
2023-05-02T03:37:55.171Z,6.73
2023-05-02T03:40:23.569Z,6.78
2023-05-02T03:42:51.687Z,6.82
2023-05-02T03:45:30.701Z,6.85
2023-05-02T03:47:59.242Z,6.89
2023-05-02T03:50:27.746Z,6.92
2023-05-02T03:52:57.423Z,6.96
2023-05-02T03:55:40.217Z,6.98
2023-05-02T03:58:10.203Z,7.01
2023-05-02T04:00:41.348Z,7.05
2023-05-02T04:03:10.369Z,7.07
2023-05-02T04:05:42.725Z,7.12
2023-05-02T04:08:13.610Z,7.14
2023-05-02T04:10:42.396Z,7.17
2023-05-02T04:13:12.037Z,7.24
2023-05-02T04:15:46.519Z,7.28
2023-05-02T04:18:17.974Z,7.31
2023-05-02T04:20:46.189Z,7.32
2023-05-02T04:23:17.737Z,7.34
2023-05-02T04:25:52.336Z,7.31
2023-05-02T04:28:21.935Z,7.30
2023-05-02T04:30:52.097Z,7.33
2023-05-02T04:33:23.135Z,7.34
2023-05-02T04:35:53.078Z,7.36
2023-05-02T04:38:23.179Z,7.35
2023-05-02T04:40:52.758Z,7.33
2023-05-02T04:43:27.010Z,7.34
2023-05-02T04:46:01.175Z,7.33
2023-05-02T04:48:33.744Z,7.32
2023-05-02T04:51:02.348Z,7.33
2023-05-02T04:53:32.428Z,7.19
2023-05-02T04:56:00.975Z,7.13
2023-05-02T04:58:29.296Z,7.09
2023-05-02T05:01:05.422Z,7.06
2023-05-02T05:03:34.721Z,7.03
2023-05-02T05:06:03.655Z,7.04
2023-05-02T05:08:33.053Z,7.05
2023-05-02T05:11:02.042Z,7.06
2023-05-02T05:13:30.811Z,7.06
2023-05-02T05:15:59.347Z,7.04
2023-05-02T05:18:32.619Z,7.05
2023-05-02T05:21:01.002Z,7.05
2023-05-02T05:23:29.717Z,7.07
2023-05-02T05:25:58.090Z,7.07
2023-05-02T05:28:27.379Z,7.11
2023-05-02T05:30:55.528Z,7.15
2023-05-02T05:33:24.375Z,7.22
2023-05-02T05:35:54.356Z,7.33
2023-05-02T05:38:22.432Z,7.41
2023-05-02T05:40:51.028Z,7.51
2023-05-02T05:43:19.476Z,7.61
2023-05-02T05:45:47.904Z,7.73
2023-05-02T05:48:16.238Z,7.90
2023-05-02T05:50:46.973Z,8.14
2023-05-02T05:53:16.793Z,8.48
2023-05-02T05:55:47.284Z,8.99
2023-05-02T05:58:15.558Z,9.56
2023-05-02T06:00:45.768Z,10.18
2023-05-02T06:03:13.994Z,10.77
2023-05-02T06:05:42.153Z,11.37
2023-05-02T06:08:10.672Z,11.84
2023-05-02T06:10:40.442Z,12.26
2023-05-02T06:13:08.870Z,12.62
2023-05-02T06:15:40.800Z,13.10
2023-05-02T06:18:09.820Z,13.49
2023-05-02T06:20:38.237Z,13.73
2023-05-02T06:23:06.315Z,14.12
2023-05-02T06:25:34.337Z,14.48
2023-05-02T06:28:04.359Z,14.98
2023-05-02T06:30:32.475Z,15.45
2023-05-02T06:33:00.724Z,15.71
2023-05-02T06:35:29.006Z,16.38
2023-05-02T06:37:57.310Z,16.95
2023-05-02T06:40:25.272Z,17.47
2023-05-02T06:42:53.479Z,17.97
2023-05-02T06:45:23.381Z,18.41
2023-05-02T06:47:51.777Z,18.72
2023-05-02T06:50:21.145Z,19.21
2023-05-02T06:52:49.164Z,19.56
2023-05-02T06:55:17.345Z,19.76
2023-05-02T06:57:45.570Z,20.13
2023-05-02T07:00:14.331Z,20.48
2023-05-02T07:02:43.979Z,20.66
2023-05-02T07:05:12.005Z,20.94
2023-05-02T07:07:40.336Z,21.24
2023-05-02T07:10:09.007Z,21.63
2023-05-02T07:12:37.466Z,22.10
2023-05-02T07:15:06.728Z,22.23
2023-05-02T07:17:34.843Z,22.54
2023-05-02T07:20:04.907Z,22.95
2023-05-02T07:22:33.286Z,22.24
2023-05-02T07:25:02.653Z,22.81
2023-05-02T07:27:30.823Z,23.39
2023-05-02T07:29:59.199Z,23.23
2023-05-02T07:32:27.729Z,23.07
2023-05-02T07:34:56.382Z,23.69
2023-05-02T07:37:26.287Z,24.02
2023-05-02T07:39:54.447Z,24.08
2023-05-02T07:42:22.675Z,23.33
2023-05-02T07:44:50.777Z,22.78
2023-05-02T07:47:19.091Z,22.20
2023-05-02T07:49:47.150Z,21.59
2023-05-02T07:52:15.224Z,21.51
2023-05-02T07:54:44.894Z,21.32
2023-05-02T07:57:13.681Z,21.62
2023-05-02T07:59:41.827Z,22.14
2023-05-02T08:02:09.905Z,22.81
2023-05-02T08:04:37.971Z,23.39
2023-05-02T08:07:06.194Z,23.98
2023-05-02T08:09:34.276Z,24.05
2023-05-02T08:12:03.830Z,24.14
2023-05-02T08:14:32.188Z,24.40
2023-05-02T08:17:00.224Z,24.99
2023-05-02T08:19:28.340Z,24.93
2023-05-02T08:21:56.458Z,24.72
2023-05-02T08:24:24.533Z,24.30
2023-05-02T08:26:52.668Z,23.87
2023-05-02T08:29:22.451Z,23.39
2023-05-02T08:31:50.630Z,22.89
2023-05-02T08:34:18.874Z,22.35
2023-05-02T08:36:48.133Z,22.82
2023-05-02T08:39:17.125Z,23.27
2023-05-02T08:41:46.460Z,23.53
2023-05-02T08:44:14.747Z,23.90
2023-05-02T08:46:45.060Z,24.29
2023-05-02T08:49:14.290Z,24.30
2023-05-02T08:51:44.092Z,24.73
2023-05-02T08:54:12.540Z,24.57
2023-05-02T08:56:50.861Z,24.27
2023-05-02T08:59:20.639Z,24.32
2023-05-02T09:01:50.743Z,24.19
2023-05-02T09:04:19.652Z,24.59
2023-05-02T09:06:47.995Z,24.97
2023-05-02T09:09:18.409Z,24.85
2023-05-02T09:11:48.275Z,24.84
2023-05-02T09:14:16.938Z,24.81
2023-05-02T09:16:45.384Z,25.63
2023-05-02T09:19:24.843Z,25.19
2023-05-02T09:21:54.242Z,25.28
2023-05-02T09:24:23.250Z,25.47
2023-05-02T09:27:01.088Z,25.07
2023-05-02T09:29:30.817Z,25.24
2023-05-02T09:31:58.980Z,25.33
2023-05-02T09:34:28.668Z,25.31
2023-05-02T09:36:57.845Z,25.11
2023-05-02T09:39:26.980Z,24.90
2023-05-02T09:41:55.472Z,24.96
2023-05-02T09:44:24.684Z,24.81
2023-05-02T09:46:53.844Z,24.93
2023-05-02T09:49:40.364Z,24.91
2023-05-02T09:52:13.492Z,25.29
2023-05-02T09:54:42.131Z,24.93
2023-05-02T09:57:11.339Z,24.68
2023-05-02T09:59:41.217Z,24.59
2023-05-02T10:02:11.476Z,24.06
2023-05-02T10:04:40.391Z,23.62
2023-05-02T10:07:10.582Z,23.49
2023-05-02T10:09:44.820Z,22.92
2023-05-02T10:12:15.527Z,22.49
2023-05-02T10:14:47.198Z,22.32
2023-05-02T10:17:17.681Z,21.94
2023-05-02T10:19:50.256Z,21.54
2023-05-02T10:22:20.692Z,21.24
2023-05-02T10:24:51.208Z,21.18
2023-05-02T10:27:19.675Z,21.14
2023-05-02T10:29:48.193Z,20.95
2023-05-02T10:32:18.483Z,20.75
2023-05-02T10:34:47.612Z,20.74
2023-05-02T10:37:17.132Z,20.39
2023-05-02T10:39:45.189Z,20.26
2023-05-02T10:42:15.839Z,20.15
2023-05-02T10:44:44.318Z,20.02
2023-05-02T10:47:22.222Z,19.97
2023-05-02T10:49:54.354Z,19.91
2023-05-02T10:52:33.000Z,19.49
2023-05-02T10:55:21.373Z,19.17
2023-05-02T10:58:08.468Z,18.81
2023-05-02T11:00:38.421Z,18.55
2023-05-02T11:03:06.893Z,18.41
2023-05-02T11:05:55.173Z,17.98
2023-05-02T11:08:32.814Z,17.85
2023-05-02T11:11:16.224Z,17.66
2023-05-02T11:13:50.523Z,17.55
2023-05-02T11:16:20.408Z,17.36
2023-05-02T11:19:03.106Z,17.25
2023-05-02T11:21:32.831Z,17.38
2023-05-02T11:24:19.583Z,17.37
2023-05-02T11:26:48.524Z,17.38
2023-05-02T11:29:37.701Z,17.55
2023-05-02T11:32:08.901Z,17.47
2023-05-02T11:34:43.928Z,17.59
2023-05-02T11:37:12.889Z,18.07
2023-05-02T11:39:41.119Z,18.27
2023-05-02T11:42:09.521Z,18.64
2023-05-02T11:44:52.795Z,18.42
2023-05-02T11:47:22.435Z,18.66
2023-05-02T11:49:50.797Z,18.78
2023-05-02T11:52:19.516Z,18.75
2023-05-02T11:54:48.003Z,19.20
2023-05-02T11:57:16.152Z,19.21
2023-05-02T11:59:50.934Z,19.09
2023-05-02T12:02:19.400Z,19.30
2023-05-02T12:04:49.264Z,19.23
2023-05-02T12:07:17.432Z,19.54
2023-05-02T12:09:52.374Z,19.14
2023-05-02T12:12:23.506Z,18.99
2023-05-02T12:14:51.946Z,18.99
2023-05-02T12:17:20.097Z,18.83
2023-05-02T12:19:50.165Z,18.97
2023-05-02T12:22:18.871Z,19.06
2023-05-02T12:24:47.149Z,18.99
2023-05-02T12:27:16.586Z,18.87
2023-05-02T12:29:45.415Z,19.21
2023-05-02T12:32:14.297Z,18.83
2023-05-02T12:34:42.928Z,18.77
2023-05-02T12:37:12.593Z,18.99
2023-05-02T12:39:43.418Z,19.04
2023-05-02T12:42:12.411Z,18.64
2023-05-02T12:44:41.499Z,18.94
2023-05-02T12:47:10.196Z,18.89
2023-05-02T12:49:49.751Z,18.56
2023-05-02T12:52:19.270Z,18.61
2023-05-02T12:54:47.528Z,18.80
2023-05-02T12:57:25.818Z,18.98
2023-05-02T12:59:55.281Z,18.90
2023-05-02T13:02:23.834Z,18.87
2023-05-02T13:04:52.396Z,18.94
2023-05-02T13:07:22.077Z,18.59
2023-05-02T13:09:50.449Z,18.36
2023-05-02T13:12:18.690Z,18.55
2023-05-02T13:14:46.819Z,18.50
2023-05-02T13:17:15.105Z,18.65
2023-05-02T13:19:50.449Z,18.65
2023-05-02T13:22:23.875Z,19.08
2023-05-02T13:24:51.917Z,18.99
2023-05-02T13:27:20.045Z,19.25
2023-05-02T13:29:48.165Z,19.23
2023-05-02T13:32:16.460Z,19.28
2023-05-02T13:34:45.013Z,19.37
2023-05-02T13:37:13.295Z,19.50
2023-05-02T13:39:42.851Z,19.79
2023-05-02T13:42:11.255Z,19.64
2023-05-02T13:44:39.475Z,19.47
2023-05-02T13:47:07.639Z,19.56
2023-05-02T13:49:35.707Z,19.27
2023-05-02T13:52:04.387Z,19.46
2023-05-02T13:54:32.728Z,19.64
2023-05-02T13:57:02.763Z,19.43
2023-05-02T13:59:30.908Z,19.52
2023-05-02T14:01:59.026Z,19.59
2023-05-02T14:04:27.301Z,19.32
2023-05-02T14:06:55.678Z,19.36
2023-05-02T14:09:24.139Z,19.14
2023-05-02T14:11:52.637Z,19.29
2023-05-02T14:14:22.261Z,19.11
2023-05-02T14:16:50.669Z,18.95
2023-05-02T14:19:19.429Z,18.97
2023-05-02T14:21:47.674Z,19.03
2023-05-02T14:24:16.598Z,19.17
2023-05-02T14:26:44.735Z,19.01
2023-05-02T14:29:12.842Z,18.87
2023-05-02T14:31:42.471Z,18.86
2023-05-02T14:34:10.703Z,18.94
2023-05-02T14:36:38.737Z,18.98
2023-05-02T14:39:06.746Z,18.98
2023-05-02T14:41:35.099Z,18.89
2023-05-02T14:44:03.904Z,18.94
2023-05-02T14:46:32.037Z,19.03
2023-05-02T14:49:01.784Z,18.95
2023-05-02T14:51:29.839Z,19.07
2023-05-02T14:53:57.976Z,18.97
2023-05-02T14:56:26.218Z,18.91
2023-05-02T14:58:54.250Z,18.69
2023-05-02T15:01:23.222Z,19.05
2023-05-02T15:04:05.909Z,18.94
2023-05-02T15:06:37.476Z,19.07
2023-05-02T15:09:06.051Z,19.16
2023-05-02T15:11:34.682Z,19.20
2023-05-02T15:14:02.979Z,19.40
2023-05-02T15:16:31.155Z,19.04
2023-05-02T15:18:59.127Z,18.93
2023-05-02T15:21:27.201Z,18.85
2023-05-02T15:23:56.710Z,19.03
2023-05-02T15:26:26.137Z,18.96
2023-05-02T15:28:54.378Z,18.71
2023-05-02T15:31:22.916Z,18.68
2023-05-02T15:33:51.412Z,18.60
2023-05-02T15:36:19.663Z,18.66
2023-05-02T15:38:47.688Z,18.69
2023-05-02T15:41:17.281Z,18.73
2023-05-02T15:43:45.483Z,18.68
2023-05-02T15:46:13.661Z,18.55
2023-05-02T15:48:42.057Z,18.57
2023-05-02T15:51:10.853Z,18.41
2023-05-02T15:53:42.403Z,18.46
2023-05-02T15:56:11.059Z,18.39
2023-05-02T15:58:42.073Z,18.26
2023-05-02T16:01:10.328Z,18.07
2023-05-02T16:03:38.737Z,18.11
2023-05-02T16:06:07.764Z,18.18
2023-05-02T16:08:36.006Z,18.43
2023-05-02T16:11:04.535Z,18.35
2023-05-02T16:13:32.721Z,18.28
2023-05-02T16:16:02.525Z,18.31
2023-05-02T16:18:31.346Z,18.36
2023-05-02T16:20:59.801Z,18.23
2023-05-02T16:23:28.051Z,17.83
2023-05-02T16:25:59.752Z,17.71
2023-05-02T16:28:28.390Z,17.66
2023-05-02T16:30:57.011Z,17.55
2023-05-02T16:33:29.635Z,17.49
2023-05-02T16:36:03.942Z,17.57
2023-05-02T16:38:32.707Z,17.45
2023-05-02T16:41:03.995Z,17.72
2023-05-02T16:43:32.065Z,17.68
2023-05-02T16:46:01.474Z,17.70
2023-05-02T16:48:31.789Z,17.73
2023-05-02T16:51:01.669Z,17.64
2023-05-02T16:53:31.907Z,17.50
2023-05-02T16:56:00.774Z,17.35
2023-05-02T16:58:29.892Z,17.36
2023-05-02T17:00:58.017Z,17.23
2023-05-02T17:03:26.846Z,17.08
2023-05-02T17:05:59.451Z,17.06
2023-05-02T17:08:27.643Z,16.94
2023-05-02T17:10:56.327Z,17.09
2023-05-02T17:13:24.552Z,16.91
2023-05-02T17:15:53.024Z,16.86
2023-05-02T17:18:21.964Z,16.84
2023-05-02T17:20:50.291Z,16.69
2023-05-02T17:23:20.111Z,16.54
2023-05-02T17:25:48.452Z,16.47
2023-05-02T17:28:16.837Z,16.52
2023-05-02T17:30:45.162Z,16.52
2023-05-02T17:33:13.274Z,16.32
2023-05-02T17:35:42.418Z,16.29
2023-05-02T17:38:11.429Z,16.09
2023-05-02T17:40:41.210Z,15.99
2023-05-02T17:43:13.749Z,16.14
2023-05-02T17:45:43.087Z,15.98
2023-05-02T17:48:11.338Z,16.03
2023-05-02T17:50:39.909Z,16.04
2023-05-02T17:53:08.285Z,15.95
2023-05-02T17:55:37.757Z,15.88
2023-05-02T17:58:07.630Z,16.02
2023-05-02T18:00:35.717Z,15.91
2023-05-02T18:03:04.238Z,15.97
2023-05-02T18:05:32.677Z,16.02
2023-05-02T18:08:00.854Z,15.91
2023-05-02T18:10:29.496Z,15.88
2023-05-02T18:12:57.864Z,15.80
2023-05-02T18:15:27.735Z,15.91
2023-05-02T18:17:56.789Z,15.73
2023-05-02T18:20:24.899Z,15.70
2023-05-02T18:22:52.992Z,15.59
2023-05-02T18:25:21.548Z,15.63
2023-05-02T18:27:50.059Z,15.57
2023-05-02T18:30:19.448Z,15.51
2023-05-02T18:32:48.988Z,15.34
2023-05-02T18:35:17.481Z,15.23
2023-05-02T18:37:45.639Z,15.24
2023-05-02T18:40:13.871Z,15.24
2023-05-02T18:42:42.332Z,15.19
2023-05-02T18:45:10.550Z,15.16
2023-05-02T18:47:39.003Z,15.11
2023-05-02T18:50:10.052Z,15.05
2023-05-02T18:52:38.800Z,14.98
2023-05-02T18:55:07.821Z,15.04
2023-05-02T18:57:36.330Z,14.91
2023-05-02T19:00:06.498Z,14.86
2023-05-02T19:02:35.006Z,14.88
2023-05-02T19:05:06.360Z,14.86
2023-05-02T19:07:38.365Z,14.77
2023-05-02T19:10:07.352Z,14.77
2023-05-02T19:12:35.640Z,14.70
2023-05-02T19:15:05.064Z,14.66
2023-05-02T19:17:33.460Z,14.65
2023-05-02T19:20:01.921Z,14.56
2023-05-02T19:22:32.267Z,14.50
2023-05-02T19:25:02.460Z,14.45
2023-05-02T19:27:30.860Z,14.38
2023-05-02T19:29:59.615Z,14.25
2023-05-02T19:32:27.952Z,14.08
2023-05-02T19:34:56.968Z,14.05
2023-05-02T19:37:25.183Z,13.93
2023-05-02T19:39:53.584Z,13.89
2023-05-02T19:42:23.005Z,13.73
2023-05-02T19:44:51.218Z,13.61
2023-05-02T19:47:19.566Z,13.55
2023-05-02T19:49:47.871Z,13.44
2023-05-02T19:52:16.496Z,13.38
2023-05-02T19:54:45.005Z,13.31
2023-05-02T19:57:13.272Z,13.19
2023-05-02T19:59:42.909Z,13.18
2023-05-02T20:02:11.593Z,13.14
2023-05-02T20:04:39.709Z,13.05
2023-05-02T20:07:08.520Z,13.02
2023-05-02T20:09:36.721Z,13.02
2023-05-02T20:12:05.395Z,12.95
2023-05-02T20:14:33.502Z,12.96
2023-05-02T20:17:03.720Z,12.94
2023-05-02T20:19:32.839Z,12.93
2023-05-02T20:22:01.192Z,12.92
2023-05-02T20:24:29.317Z,12.89
2023-05-02T20:26:57.345Z,12.88
2023-05-02T20:29:26.369Z,12.83
2023-05-02T20:31:56.239Z,12.74
2023-05-02T20:34:26.175Z,12.75
2023-05-02T20:36:55.060Z,12.73
2023-05-02T20:39:24.072Z,12.72
2023-05-02T20:41:52.086Z,12.65
2023-05-02T20:44:22.695Z,12.59
2023-05-02T20:46:51.652Z,12.56
2023-05-02T20:49:19.811Z,12.51
2023-05-02T20:51:50.312Z,12.53
2023-05-02T20:54:19.019Z,12.50
2023-05-02T20:56:47.929Z,12.51
2023-05-02T20:59:15.947Z,12.49
2023-05-02T21:01:44.463Z,12.44
2023-05-02T21:04:14.525Z,12.44
2023-05-02T21:06:42.814Z,12.44
2023-05-02T21:09:12.544Z,12.41
2023-05-02T21:11:43.733Z,12.41
2023-05-02T21:14:13.353Z,12.34
2023-05-02T21:16:41.454Z,12.34
2023-05-02T21:19:09.639Z,12.34
2023-05-02T21:21:37.776Z,12.33
2023-05-02T21:24:07.075Z,12.30
2023-05-02T21:26:36.493Z,12.27
2023-05-02T21:29:04.896Z,12.15
2023-05-02T21:31:33.333Z,12.16
2023-05-02T21:34:02.654Z,12.18
2023-05-02T21:36:30.791Z,12.14
2023-05-02T21:38:59.219Z,12.12
2023-05-02T21:41:27.368Z,12.12
2023-05-02T21:43:56.882Z,12.04
2023-05-02T21:46:25.269Z,11.99
2023-05-02T21:48:53.398Z,11.99
2023-05-02T21:51:21.873Z,11.98
2023-05-02T21:53:50.237Z,11.90
2023-05-02T21:56:18.243Z,11.87
2023-05-02T21:58:50.586Z,11.86
2023-05-02T22:01:20.856Z,11.82
2023-05-02T22:03:49.477Z,11.76
2023-05-02T22:06:18.299Z,11.69
2023-05-02T22:08:47.369Z,11.68
2023-05-02T22:11:16.202Z,11.59
2023-05-02T22:13:44.198Z,11.61
2023-05-02T22:16:12.657Z,11.56
2023-05-02T22:18:44.709Z,11.56
2023-05-02T22:21:13.475Z,11.49
2023-05-02T22:23:42.183Z,11.44
2023-05-02T22:26:10.744Z,11.38
2023-05-02T22:28:38.906Z,11.40
2023-05-02T22:31:09.546Z,11.34
2023-05-02T22:33:38.342Z,11.32
2023-05-02T22:36:09.695Z,11.23
2023-05-02T22:38:39.776Z,11.20
2023-05-02T22:41:07.914Z,11.17
2023-05-02T22:43:35.968Z,11.18
2023-05-02T22:46:04.028Z,11.13
2023-05-02T22:48:32.539Z,11.12
2023-05-02T22:51:01.076Z,11.06
2023-05-02T22:53:30.638Z,11.03
2023-05-02T22:55:58.645Z,10.99
2023-05-02T22:58:26.809Z,11.03
2023-05-02T23:00:54.874Z,10.99
2023-05-02T23:03:23.118Z,11.00
2023-05-02T23:05:51.214Z,10.97
2023-05-02T23:08:19.462Z,10.94
2023-05-02T23:10:48.956Z,10.94
2023-05-02T23:13:17.318Z,10.93
2023-05-02T23:15:45.526Z,10.85
2023-05-02T23:18:13.681Z,10.85
2023-05-02T23:20:41.864Z,10.86
2023-05-02T23:23:09.948Z,10.88
2023-05-02T23:25:38.030Z,10.88
2023-05-02T23:28:07.894Z,10.84
2023-05-02T23:30:36.164Z,10.85
2023-05-02T23:33:04.334Z,10.84
2023-05-02T23:35:32.612Z,10.82
2023-05-02T23:38:01.025Z,10.75
2023-05-02T23:40:29.052Z,10.80
2023-05-02T23:42:57.107Z,10.77
2023-05-02T23:45:26.739Z,10.79
2023-05-02T23:47:54.813Z,10.78
2023-05-02T23:50:22.903Z,10.77
2023-05-02T23:52:51.242Z,10.77
2023-05-02T23:55:19.240Z,10.77
2023-05-02T23:57:47.307Z,10.77
